sensor_id;sensor_type;location;lat;lon;timestamp;P1;durP1;ratioP1;P2;durP2;ratioP2
3189;SDS011;1606;51.946;10.558;2023-04-01T00:00:20;8.20;;;1.10;;
3189;SDS011;1606;51.946;10.558;2023-04-01T00:02:48;7.57;;;1.50;;
3189;SDS011;1606;51.946;10.558;2023-04-01T00:05:16;7.30;;;1.30;;
3189;SDS011;1606;51.946;10.558;2023-04-01T00:07:45;6.30;;;1.20;;
3189;SDS011;1606;51.946;10.558;2023-04-01T00:10:14;7.33;;;1.10;;
3189;SDS011;1606;51.946;10.558;2023-04-01T00:12:42;8.80;;;1.53;;
3189;SDS011;1606;51.946;10.558;2023-04-01T00:15:11;6.53;;;1.40;;
3189;SDS011;1606;51.946;10.558;2023-04-01T00:17:39;6.20;;;1.07;;
3189;SDS011;1606;51.946;10.558;2023-04-01T00:20:07;6.60;;;1.70;;
3189;SDS011;1606;51.946;10.558;2023-04-01T00:22:35;7.23;;;1.43;;
3189;SDS011;1606;51.946;10.558;2023-04-01T00:25:03;9.73;;;1.50;;
3189;SDS011;1606;51.946;10.558;2023-04-01T00:27:33;6.27;;;1.50;;
3189;SDS011;1606;51.946;10.558;2023-04-01T00:30:01;6.27;;;1.47;;
3189;SDS011;1606;51.946;10.558;2023-04-01T00:32:29;9.73;;;1.77;;
3189;SDS011;1606;51.946;10.558;2023-04-01T00:34:57;7.30;;;1.37;;
3189;SDS011;1606;51.946;10.558;2023-04-01T00:37:25;9.70;;;1.60;;
3189;SDS011;1606;51.946;10.558;2023-04-01T00:39:53;6.97;;;1.40;;
3189;SDS011;1606;51.946;10.558;2023-04-01T00:42:21;7.20;;;1.20;;
3189;SDS011;1606;51.946;10.558;2023-04-01T00:44:51;7.53;;;1.40;;
3189;SDS011;1606;51.946;10.558;2023-04-01T00:47:21;9.83;;;1.60;;
3189;SDS011;1606;51.946;10.558;2023-04-01T00:49:50;6.83;;;1.30;;
3189;SDS011;1606;51.946;10.558;2023-04-01T00:52:20;9.97;;;1.47;;
3189;SDS011;1606;51.946;10.558;2023-04-01T00:54:52;8.20;;;1.27;;
3189;SDS011;1606;51.946;10.558;2023-04-01T00:57:23;6.53;;;1.30;;
3189;SDS011;1606;51.946;10.558;2023-04-01T00:59:58;6.50;;;1.23;;
3189;SDS011;1606;51.946;10.558;2023-04-01T01:02:26;9.70;;;1.50;;
3189;SDS011;1606;51.946;10.558;2023-04-01T01:04:54;10.03;;;1.53;;
3189;SDS011;1606;51.946;10.558;2023-04-01T01:07:24;6.23;;;1.30;;
3189;SDS011;1606;51.946;10.558;2023-04-01T01:10:02;5.70;;;1.00;;
3189;SDS011;1606;51.946;10.558;2023-04-01T01:12:34;8.13;;;1.60;;
3189;SDS011;1606;51.946;10.558;2023-04-01T01:15:11;6.10;;;1.00;;
3189;SDS011;1606;51.946;10.558;2023-04-01T01:17:45;6.43;;;1.10;;
3189;SDS011;1606;51.946;10.558;2023-04-01T01:20:24;7.37;;;1.30;;
3189;SDS011;1606;51.946;10.558;2023-04-01T01:23:28;7.32;;;1.70;;
3189;SDS011;1606;51.946;10.558;2023-04-01T01:26:21;7.00;;;1.30;;
3189;SDS011;1606;51.946;10.558;2023-04-01T01:29:14;6.80;;;1.23;;
3189;SDS011;1606;51.946;10.558;2023-04-01T01:31:57;7.83;;;1.97;;
3189;SDS011;1606;51.946;10.558;2023-04-01T01:34:36;6.90;;;1.73;;
3189;SDS011;1606;51.946;10.558;2023-04-01T01:37:12;9.73;;;1.40;;
3189;SDS011;1606;51.946;10.558;2023-04-01T01:39:43;6.13;;;1.30;;
3189;SDS011;1606;51.946;10.558;2023-04-01T01:42:15;7.00;;;1.23;;
3189;SDS011;1606;51.946;10.558;2023-04-01T01:44:45;6.87;;;1.50;;
3189;SDS011;1606;51.946;10.558;2023-04-01T01:47:15;5.70;;;1.10;;
3189;SDS011;1606;51.946;10.558;2023-04-01T01:49:46;7.03;;;1.10;;
3189;SDS011;1606;51.946;10.558;2023-04-01T01:52:16;7.97;;;1.13;;
3189;SDS011;1606;51.946;10.558;2023-04-01T01:54:47;5.70;;;1.17;;
3189;SDS011;1606;51.946;10.558;2023-04-01T01:57:16;5.50;;;1.03;;
3189;SDS011;1606;51.946;10.558;2023-04-01T01:59:46;6.90;;;1.00;;
3189;SDS011;1606;51.946;10.558;2023-04-01T02:02:15;5.73;;;1.20;;
3189;SDS011;1606;51.946;10.558;2023-04-01T02:04:44;6.37;;;1.30;;
3189;SDS011;1606;51.946;10.558;2023-04-01T02:07:14;7.37;;;1.10;;
3189;SDS011;1606;51.946;10.558;2023-04-01T02:09:47;8.10;;;1.10;;
3189;SDS011;1606;51.946;10.558;2023-04-01T02:12:15;6.80;;;1.37;;
3189;SDS011;1606;51.946;10.558;2023-04-01T02:14:47;7.47;;;1.50;;
3189;SDS011;1606;51.946;10.558;2023-04-01T02:17:18;7.27;;;1.10;;
3189;SDS011;1606;51.946;10.558;2023-04-01T02:19:47;7.95;;;1.30;;
3189;SDS011;1606;51.946;10.558;2023-04-01T02:22:21;6.03;;;1.30;;
3189;SDS011;1606;51.946;10.558;2023-04-01T02:24:52;6.77;;;1.30;;
3189;SDS011;1606;51.946;10.558;2023-04-01T02:27:24;7.40;;;1.23;;
3189;SDS011;1606;51.946;10.558;2023-04-01T02:29:52;8.90;;;1.47;;
3189;SDS011;1606;51.946;10.558;2023-04-01T02:32:20;5.30;;;0.90;;
3189;SDS011;1606;51.946;10.558;2023-04-01T02:34:48;8.07;;;1.40;;
3189;SDS011;1606;51.946;10.558;2023-04-01T02:37:17;6.83;;;0.90;;
3189;SDS011;1606;51.946;10.558;2023-04-01T02:39:46;5.30;;;1.00;;
3189;SDS011;1606;51.946;10.558;2023-04-01T02:42:14;6.30;;;0.90;;
3189;SDS011;1606;51.946;10.558;2023-04-01T02:44:42;6.00;;;0.90;;
3189;SDS011;1606;51.946;10.558;2023-04-01T02:47:10;6.70;;;1.03;;
3189;SDS011;1606;51.946;10.558;2023-04-01T02:49:38;5.50;;;0.93;;
3189;SDS011;1606;51.946;10.558;2023-04-01T02:52:06;6.67;;;1.03;;
3189;SDS011;1606;51.946;10.558;2023-04-01T02:54:33;6.17;;;0.90;;
3189;SDS011;1606;51.946;10.558;2023-04-01T02:57:02;5.43;;;0.93;;
3189;SDS011;1606;51.946;10.558;2023-04-01T02:59:30;5.70;;;1.00;;
3189;SDS011;1606;51.946;10.558;2023-04-01T03:01:58;5.90;;;0.87;;
3189;SDS011;1606;51.946;10.558;2023-04-01T03:04:26;6.30;;;1.03;;
3189;SDS011;1606;51.946;10.558;2023-04-01T03:06:53;6.17;;;1.13;;
3189;SDS011;1606;51.946;10.558;2023-04-01T03:09:21;6.43;;;1.00;;
3189;SDS011;1606;51.946;10.558;2023-04-01T03:11:49;6.40;;;2.07;;
3189;SDS011;1606;51.946;10.558;2023-04-01T03:14:18;5.60;;;1.20;;
3189;SDS011;1606;51.946;10.558;2023-04-01T03:16:46;6.73;;;1.10;;
3189;SDS011;1606;51.946;10.558;2023-04-01T03:19:14;6.50;;;1.20;;
3189;SDS011;1606;51.946;10.558;2023-04-01T03:21:42;7.20;;;1.20;;
3189;SDS011;1606;51.946;10.558;2023-04-01T03:24:09;5.93;;;1.10;;
3189;SDS011;1606;51.946;10.558;2023-04-01T03:26:37;5.60;;;0.90;;
3189;SDS011;1606;51.946;10.558;2023-04-01T03:29:05;6.77;;;1.50;;
3189;SDS011;1606;51.946;10.558;2023-04-01T03:31:34;9.73;;;1.30;;
3189;SDS011;1606;51.946;10.558;2023-04-01T03:34:02;12.73;;;1.50;;
3189;SDS011;1606;51.946;10.558;2023-04-01T03:36:29;7.83;;;1.37;;
3189;SDS011;1606;51.946;10.558;2023-04-01T03:38:57;5.93;;;1.00;;
3189;SDS011;1606;51.946;10.558;2023-04-01T03:41:25;6.23;;;1.00;;
3189;SDS011;1606;51.946;10.558;2023-04-01T03:43:53;6.10;;;1.10;;
3189;SDS011;1606;51.946;10.558;2023-04-01T03:46:21;8.23;;;1.20;;
3189;SDS011;1606;51.946;10.558;2023-04-01T03:48:51;6.97;;;1.33;;
3189;SDS011;1606;51.946;10.558;2023-04-01T03:51:18;6.40;;;1.30;;
3189;SDS011;1606;51.946;10.558;2023-04-01T03:53:46;6.47;;;1.00;;
3189;SDS011;1606;51.946;10.558;2023-04-01T03:56:14;6.43;;;1.33;;
3189;SDS011;1606;51.946;10.558;2023-04-01T03:58:42;7.30;;;1.70;;
3189;SDS011;1606;51.946;10.558;2023-04-01T04:01:13;5.50;;;1.07;;
3189;SDS011;1606;51.946;10.558;2023-04-01T04:03:42;9.23;;;1.00;;
3189;SDS011;1606;51.946;10.558;2023-04-01T04:06:13;5.87;;;0.90;;
3189;SDS011;1606;51.946;10.558;2023-04-01T04:08:41;6.00;;;1.13;;
3189;SDS011;1606;51.946;10.558;2023-04-01T04:11:10;6.47;;;1.00;;
3189;SDS011;1606;51.946;10.558;2023-04-01T04:13:38;5.73;;;1.00;;
3189;SDS011;1606;51.946;10.558;2023-04-01T04:16:06;6.30;;;1.10;;
3189;SDS011;1606;51.946;10.558;2023-04-01T04:18:34;7.17;;;1.30;;
3189;SDS011;1606;51.946;10.558;2023-04-01T04:21:02;6.40;;;1.37;;
3189;SDS011;1606;51.946;10.558;2023-04-01T04:23:32;6.83;;;1.20;;
3189;SDS011;1606;51.946;10.558;2023-04-01T04:26:01;6.30;;;1.33;;
3189;SDS011;1606;51.946;10.558;2023-04-01T04:28:30;6.73;;;1.20;;
3189;SDS011;1606;51.946;10.558;2023-04-01T04:30:59;7.60;;;1.13;;
3189;SDS011;1606;51.946;10.558;2023-04-01T04:33:27;5.70;;;1.00;;
3189;SDS011;1606;51.946;10.558;2023-04-01T04:35:55;6.47;;;1.10;;
3189;SDS011;1606;51.946;10.558;2023-04-01T04:38:24;7.40;;;1.30;;
3189;SDS011;1606;51.946;10.558;2023-04-01T04:40:54;6.67;;;1.10;;
3189;SDS011;1606;51.946;10.558;2023-04-01T04:43:22;7.83;;;1.20;;
3189;SDS011;1606;51.946;10.558;2023-04-01T04:45:50;5.40;;;0.80;;
3189;SDS011;1606;51.946;10.558;2023-04-01T04:48:18;5.87;;;1.00;;
3189;SDS011;1606;51.946;10.558;2023-04-01T04:50:46;5.47;;;0.90;;
3189;SDS011;1606;51.946;10.558;2023-04-01T04:53:15;6.30;;;1.30;;
3189;SDS011;1606;51.946;10.558;2023-04-01T04:55:44;5.80;;;1.23;;
3189;SDS011;1606;51.946;10.558;2023-04-01T04:58:13;5.77;;;1.13;;
3189;SDS011;1606;51.946;10.558;2023-04-01T05:00:41;5.30;;;0.90;;
3189;SDS011;1606;51.946;10.558;2023-04-01T05:03:10;5.67;;;1.07;;
3189;SDS011;1606;51.946;10.558;2023-04-01T05:05:39;6.60;;;1.00;;
3189;SDS011;1606;51.946;10.558;2023-04-01T05:08:06;8.43;;;1.30;;
3189;SDS011;1606;51.946;10.558;2023-04-01T05:10:34;5.60;;;1.00;;
3189;SDS011;1606;51.946;10.558;2023-04-01T05:13:02;6.10;;;1.20;;
3189;SDS011;1606;51.946;10.558;2023-04-01T05:15:31;6.20;;;1.17;;
3189;SDS011;1606;51.946;10.558;2023-04-01T05:17:59;5.60;;;1.00;;
3189;SDS011;1606;51.946;10.558;2023-04-01T05:20:27;5.70;;;1.00;;
3189;SDS011;1606;51.946;10.558;2023-04-01T05:22:55;5.20;;;0.90;;
3189;SDS011;1606;51.946;10.558;2023-04-01T05:25:23;5.70;;;1.10;;
3189;SDS011;1606;51.946;10.558;2023-04-01T05:27:51;7.57;;;1.17;;
3189;SDS011;1606;51.946;10.558;2023-04-01T05:30:19;5.80;;;1.00;;
3189;SDS011;1606;51.946;10.558;2023-04-01T05:32:48;5.90;;;1.10;;
3189;SDS011;1606;51.946;10.558;2023-04-01T05:35:16;5.50;;;1.00;;
3189;SDS011;1606;51.946;10.558;2023-04-01T05:37:44;5.70;;;1.10;;
3189;SDS011;1606;51.946;10.558;2023-04-01T05:40:12;6.00;;;1.10;;
3189;SDS011;1606;51.946;10.558;2023-04-01T05:42:39;7.37;;;1.20;;
3189;SDS011;1606;51.946;10.558;2023-04-01T05:45:07;5.80;;;1.00;;
3189;SDS011;1606;51.946;10.558;2023-04-01T05:47:36;5.20;;;0.80;;
3189;SDS011;1606;51.946;10.558;2023-04-01T05:50:05;5.50;;;0.90;;
3189;SDS011;1606;51.946;10.558;2023-04-01T05:52:33;6.10;;;1.10;;
3189;SDS011;1606;51.946;10.558;2023-04-01T05:55:01;8.17;;;1.00;;
3189;SDS011;1606;51.946;10.558;2023-04-01T05:57:29;5.60;;;0.90;;
3189;SDS011;1606;51.946;10.558;2023-04-01T05:59:57;5.50;;;0.93;;
3189;SDS011;1606;51.946;10.558;2023-04-01T06:02:25;6.20;;;1.10;;
3189;SDS011;1606;51.946;10.558;2023-04-01T06:04:54;5.90;;;0.90;;
3189;SDS011;1606;51.946;10.558;2023-04-01T06:07:32;6.63;;;1.00;;
3189;SDS011;1606;51.946;10.558;2023-04-01T06:09:59;6.47;;;1.00;;
3189;SDS011;1606;51.946;10.558;2023-04-01T06:12:37;7.00;;;0.90;;
3189;SDS011;1606;51.946;10.558;2023-04-01T06:15:13;7.10;;;1.10;;
3189;SDS011;1606;51.946;10.558;2023-04-01T06:17:54;6.37;;;0.90;;
3189;SDS011;1606;51.946;10.558;2023-04-01T06:20:33;7.00;;;0.93;;
3189;SDS011;1606;51.946;10.558;2023-04-01T06:26:07;8.03;;;1.00;;
3189;SDS011;1606;51.946;10.558;2023-04-01T06:28:49;5.30;;;1.07;;
3189;SDS011;1606;51.946;10.558;2023-04-01T06:31:38;8.40;;;1.10;;
3189;SDS011;1606;51.946;10.558;2023-04-01T06:34:35;8.53;;;1.83;;
3189;SDS011;1606;51.946;10.558;2023-04-01T06:37:27;6.60;;;1.00;;
3189;SDS011;1606;51.946;10.558;2023-04-01T06:43:09;6.03;;;1.20;;
3189;SDS011;1606;51.946;10.558;2023-04-01T06:45:47;6.13;;;0.93;;
3189;SDS011;1606;51.946;10.558;2023-04-01T06:48:25;5.67;;;1.00;;
3189;SDS011;1606;51.946;10.558;2023-04-01T06:51:08;6.43;;;1.37;;
3189;SDS011;1606;51.946;10.558;2023-04-01T06:53:46;5.60;;;1.00;;
3189;SDS011;1606;51.946;10.558;2023-04-01T06:56:23;5.87;;;1.00;;
3189;SDS011;1606;51.946;10.558;2023-04-01T06:58:55;5.60;;;1.00;;
3189;SDS011;1606;51.946;10.558;2023-04-01T07:01:26;6.07;;;1.03;;
3189;SDS011;1606;51.946;10.558;2023-04-01T07:03:58;5.93;;;1.23;;
3189;SDS011;1606;51.946;10.558;2023-04-01T07:06:29;6.22;;;0.80;;
3189;SDS011;1606;51.946;10.558;2023-04-01T07:09:00;4.90;;;0.80;;
3189;SDS011;1606;51.946;10.558;2023-04-01T07:11:34;4.80;;;0.90;;
3189;SDS011;1606;51.946;10.558;2023-04-01T07:14:05;6.03;;;1.10;;
3189;SDS011;1606;51.946;10.558;2023-04-01T07:16:41;7.43;;;1.20;;
3189;SDS011;1606;51.946;10.558;2023-04-01T07:19:16;5.10;;;0.90;;
3189;SDS011;1606;51.946;10.558;2023-04-01T07:21:49;5.20;;;0.97;;
3189;SDS011;1606;51.946;10.558;2023-04-01T07:24:22;6.33;;;1.20;;
3189;SDS011;1606;51.946;10.558;2023-04-01T07:26:55;5.20;;;1.00;;
3189;SDS011;1606;51.946;10.558;2023-04-01T07:29:23;5.90;;;1.07;;
3189;SDS011;1606;51.946;10.558;2023-04-01T07:32:11;5.77;;;0.80;;
3189;SDS011;1606;51.946;10.558;2023-04-01T07:34:55;4.90;;;0.87;;
3189;SDS011;1606;51.946;10.558;2023-04-01T07:37:30;6.57;;;1.20;;
3189;SDS011;1606;51.946;10.558;2023-04-01T07:40:08;5.20;;;0.80;;
3189;SDS011;1606;51.946;10.558;2023-04-01T07:42:47;7.10;;;1.20;;
3189;SDS011;1606;51.946;10.558;2023-04-01T07:45:29;5.87;;;0.80;;
3189;SDS011;1606;51.946;10.558;2023-04-01T07:48:06;5.97;;;0.87;;
3189;SDS011;1606;51.946;10.558;2023-04-01T07:50:46;4.70;;;0.93;;
3189;SDS011;1606;51.946;10.558;2023-04-01T07:53:23;5.80;;;0.70;;
3189;SDS011;1606;51.946;10.558;2023-04-01T07:56:01;5.57;;;1.13;;
3189;SDS011;1606;51.946;10.558;2023-04-01T07:58:37;5.90;;;0.80;;
3189;SDS011;1606;51.946;10.558;2023-04-01T08:01:13;7.20;;;1.23;;
3189;SDS011;1606;51.946;10.558;2023-04-01T08:03:54;5.20;;;0.50;;
3189;SDS011;1606;51.946;10.558;2023-04-01T08:06:44;5.30;;;0.90;;
3189;SDS011;1606;51.946;10.558;2023-04-01T08:09:20;5.30;;;0.90;;
3189;SDS011;1606;51.946;10.558;2023-04-01T08:11:58;4.70;;;0.77;;
3189;SDS011;1606;51.946;10.558;2023-04-01T08:14:34;4.70;;;0.70;;
3189;SDS011;1606;51.946;10.558;2023-04-01T08:17:08;5.30;;;1.57;;
3189;SDS011;1606;51.946;10.558;2023-04-01T08:19:48;5.00;;;1.17;;
3189;SDS011;1606;51.946;10.558;2023-04-01T08:22:25;5.20;;;0.90;;
3189;SDS011;1606;51.946;10.558;2023-04-01T08:24:55;4.93;;;0.87;;
3189;SDS011;1606;51.946;10.558;2023-04-01T08:27:28;5.10;;;1.07;;
3189;SDS011;1606;51.946;10.558;2023-04-01T08:30:06;5.47;;;1.00;;
3189;SDS011;1606;51.946;10.558;2023-04-01T08:32:45;5.10;;;0.80;;
3189;SDS011;1606;51.946;10.558;2023-04-01T08:35:20;5.63;;;0.93;;
3189;SDS011;1606;51.946;10.558;2023-04-01T08:38:00;6.23;;;0.80;;
3189;SDS011;1606;51.946;10.558;2023-04-01T08:40:36;6.53;;;1.00;;
3189;SDS011;1606;51.946;10.558;2023-04-01T08:43:12;6.00;;;0.80;;
3189;SDS011;1606;51.946;10.558;2023-04-01T08:46:04;5.00;;;0.90;;
3189;SDS011;1606;51.946;10.558;2023-04-01T08:48:59;4.80;;;0.90;;
3189;SDS011;1606;51.946;10.558;2023-04-01T08:51:43;5.63;;;0.97;;
3189;SDS011;1606;51.946;10.558;2023-04-01T08:54:37;5.30;;;0.80;;
3189;SDS011;1606;51.946;10.558;2023-04-01T08:57:21;5.40;;;0.77;;
3189;SDS011;1606;51.946;10.558;2023-04-01T09:00:04;5.00;;;0.80;;
3189;SDS011;1606;51.946;10.558;2023-04-01T09:02:53;5.10;;;0.80;;
3189;SDS011;1606;51.946;10.558;2023-04-01T09:05:43;4.80;;;0.70;;
3189;SDS011;1606;51.946;10.558;2023-04-01T09:08:31;5.30;;;0.90;;
3189;SDS011;1606;51.946;10.558;2023-04-01T09:11:12;6.57;;;0.80;;
3189;SDS011;1606;51.946;10.558;2023-04-01T09:17:08;5.30;;;0.80;;
3189;SDS011;1606;51.946;10.558;2023-04-01T09:20:09;5.80;;;0.77;;
3189;SDS011;1606;51.946;10.558;2023-04-01T09:22:55;5.03;;;0.73;;
3189;SDS011;1606;51.946;10.558;2023-04-01T09:25:45;4.87;;;0.90;;
3189;SDS011;1606;51.946;10.558;2023-04-01T09:28:27;5.73;;;0.90;;
3189;SDS011;1606;51.946;10.558;2023-04-01T09:31:04;5.20;;;0.80;;
3189;SDS011;1606;51.946;10.558;2023-04-01T09:36:47;5.00;;;0.80;;
3189;SDS011;1606;51.946;10.558;2023-04-01T09:39:34;5.33;;;0.90;;
3189;SDS011;1606;51.946;10.558;2023-04-01T09:42:13;4.70;;;0.80;;
3189;SDS011;1606;51.946;10.558;2023-04-01T09:44:57;5.50;;;1.00;;
3189;SDS011;1606;51.946;10.558;2023-04-01T09:47:30;6.23;;;0.80;;
3189;SDS011;1606;51.946;10.558;2023-04-01T09:53:04;4.50;;;0.60;;
3189;SDS011;1606;51.946;10.558;2023-04-01T09:55:49;4.70;;;0.70;;
3189;SDS011;1606;51.946;10.558;2023-04-01T09:58:45;4.90;;;0.70;;
3189;SDS011;1606;51.946;10.558;2023-04-01T10:01:45;4.90;;;0.80;;
3189;SDS011;1606;51.946;10.558;2023-04-01T10:04:55;4.53;;;0.70;;
3189;SDS011;1606;51.946;10.558;2023-04-01T10:07:51;4.70;;;0.80;;
3189;SDS011;1606;51.946;10.558;2023-04-01T10:10:57;4.60;;;0.70;;
3189;SDS011;1606;51.946;10.558;2023-04-01T10:13:49;4.83;;;0.73;;
3189;SDS011;1606;51.946;10.558;2023-04-01T10:16:41;5.43;;;0.70;;
3189;SDS011;1606;51.946;10.558;2023-04-01T10:19:43;4.60;;;0.80;;
3189;SDS011;1606;51.946;10.558;2023-04-01T10:22:40;4.90;;;0.70;;
3189;SDS011;1606;51.946;10.558;2023-04-01T10:25:35;4.70;;;0.70;;
3189;SDS011;1606;51.946;10.558;2023-04-01T10:28:33;5.60;;;1.20;;
3189;SDS011;1606;51.946;10.558;2023-04-01T10:31:35;6.30;;;1.27;;
3189;SDS011;1606;51.946;10.558;2023-04-01T10:34:25;6.40;;;1.20;;
3189;SDS011;1606;51.946;10.558;2023-04-01T10:37:15;4.70;;;0.83;;
3189;SDS011;1606;51.946;10.558;2023-04-01T10:40:07;4.60;;;0.77;;
3189;SDS011;1606;51.946;10.558;2023-04-01T10:43:16;4.80;;;0.80;;
3189;SDS011;1606;51.946;10.558;2023-04-01T10:46:16;4.73;;;0.80;;
3189;SDS011;1606;51.946;10.558;2023-04-01T10:49:00;4.53;;;0.70;;
3189;SDS011;1606;51.946;10.558;2023-04-01T10:55:35;6.35;;;0.80;;
3189;SDS011;1606;51.946;10.558;2023-04-01T11:13:57;4.97;;;1.30;;
3189;SDS011;1606;51.946;10.558;2023-04-01T11:17:05;4.80;;;0.93;;
3189;SDS011;1606;51.946;10.558;2023-04-01T11:20:16;4.70;;;0.80;;
3189;SDS011;1606;51.946;10.558;2023-04-01T11:23:22;5.10;;;0.80;;
3189;SDS011;1606;51.946;10.558;2023-04-01T11:26:08;4.63;;;0.87;;
3189;SDS011;1606;51.946;10.558;2023-04-01T11:31:55;4.87;;;0.93;;
3189;SDS011;1606;51.946;10.558;2023-04-01T11:34:35;5.50;;;1.83;;
3189;SDS011;1606;51.946;10.558;2023-04-01T11:37:27;5.93;;;1.00;;
3189;SDS011;1606;51.946;10.558;2023-04-01T11:40:06;6.03;;;0.80;;
3189;SDS011;1606;51.946;10.558;2023-04-01T11:42:43;4.97;;;0.77;;
3189;SDS011;1606;51.946;10.558;2023-04-01T11:45:19;5.10;;;0.70;;
3189;SDS011;1606;51.946;10.558;2023-04-01T11:47:58;4.70;;;0.70;;
3189;SDS011;1606;51.946;10.558;2023-04-01T11:50:46;5.00;;;0.70;;
3189;SDS011;1606;51.946;10.558;2023-04-01T11:53:34;6.47;;;2.53;;
3189;SDS011;1606;51.946;10.558;2023-04-01T11:56:11;6.13;;;1.10;;
3189;SDS011;1606;51.946;10.558;2023-04-01T11:58:54;4.90;;;0.90;;
3189;SDS011;1606;51.946;10.558;2023-04-01T12:01:36;4.70;;;0.73;;
3189;SDS011;1606;51.946;10.558;2023-04-01T12:07:23;4.73;;;0.73;;
3189;SDS011;1606;51.946;10.558;2023-04-01T12:10:05;4.90;;;0.67;;
3189;SDS011;1606;51.946;10.558;2023-04-01T12:12:46;5.23;;;0.80;;
3189;SDS011;1606;51.946;10.558;2023-04-01T12:15:29;5.60;;;0.70;;
3189;SDS011;1606;51.946;10.558;2023-04-01T12:18:05;5.20;;;0.90;;
3189;SDS011;1606;51.946;10.558;2023-04-01T12:20:45;5.00;;;0.70;;
3189;SDS011;1606;51.946;10.558;2023-04-01T12:23:25;5.00;;;0.80;;
3189;SDS011;1606;51.946;10.558;2023-04-01T12:26:25;4.83;;;0.70;;
3189;SDS011;1606;51.946;10.558;2023-04-01T12:29:12;6.40;;;1.30;;
3189;SDS011;1606;51.946;10.558;2023-04-01T12:31:55;7.10;;;0.90;;
3189;SDS011;1606;51.946;10.558;2023-04-01T12:34:32;5.10;;;0.70;;
3189;SDS011;1606;51.946;10.558;2023-04-01T12:37:12;5.40;;;0.73;;
3189;SDS011;1606;51.946;10.558;2023-04-01T12:40:13;5.20;;;0.90;;
3189;SDS011;1606;51.946;10.558;2023-04-01T12:42:53;5.10;;;0.90;;
3189;SDS011;1606;51.946;10.558;2023-04-01T12:45:32;5.20;;;0.70;;
3189;SDS011;1606;51.946;10.558;2023-04-01T12:48:17;5.40;;;1.00;;
3189;SDS011;1606;51.946;10.558;2023-04-01T12:51:10;5.77;;;0.80;;
3189;SDS011;1606;51.946;10.558;2023-04-01T12:54:05;5.07;;;0.90;;
3189;SDS011;1606;51.946;10.558;2023-04-01T12:56:59;5.10;;;0.67;;
3189;SDS011;1606;51.946;10.558;2023-04-01T12:59:42;5.17;;;0.80;;
3189;SDS011;1606;51.946;10.558;2023-04-01T13:02:25;5.33;;;1.10;;
3189;SDS011;1606;51.946;10.558;2023-04-01T13:05:15;5.83;;;1.60;;
3189;SDS011;1606;51.946;10.558;2023-04-01T13:10:59;6.47;;;1.33;;
3189;SDS011;1606;51.946;10.558;2023-04-01T13:13:47;6.10;;;1.53;;
3189;SDS011;1606;51.946;10.558;2023-04-01T13:16:25;5.10;;;0.90;;
3189;SDS011;1606;51.946;10.558;2023-04-01T13:18:57;5.60;;;1.30;;
3189;SDS011;1606;51.946;10.558;2023-04-01T13:21:33;5.00;;;1.00;;
3189;SDS011;1606;51.946;10.558;2023-04-01T13:24:13;5.03;;;1.03;;
3189;SDS011;1606;51.946;10.558;2023-04-01T13:26:57;5.40;;;1.10;;
3189;SDS011;1606;51.946;10.558;2023-04-01T13:29:36;6.00;;;1.20;;
3189;SDS011;1606;51.946;10.558;2023-04-01T13:32:13;5.60;;;1.20;;
3189;SDS011;1606;51.946;10.558;2023-04-01T13:35:16;5.20;;;1.30;;
3189;SDS011;1606;51.946;10.558;2023-04-01T13:37:53;5.23;;;0.97;;
3189;SDS011;1606;51.946;10.558;2023-04-01T13:40:36;6.13;;;1.30;;
3189;SDS011;1606;51.946;10.558;2023-04-01T13:43:28;5.23;;;0.90;;
3189;SDS011;1606;51.946;10.558;2023-04-01T13:46:08;5.00;;;1.00;;
3189;SDS011;1606;51.946;10.558;2023-04-01T13:48:56;5.20;;;1.03;;
3189;SDS011;1606;51.946;10.558;2023-04-01T13:51:43;4.87;;;0.77;;
3189;SDS011;1606;51.946;10.558;2023-04-01T13:54:26;5.20;;;0.83;;
3189;SDS011;1606;51.946;10.558;2023-04-01T13:57:16;4.90;;;0.90;;
3189;SDS011;1606;51.946;10.558;2023-04-01T14:00:03;5.40;;;1.00;;
3189;SDS011;1606;51.946;10.558;2023-04-01T14:02:50;5.70;;;1.00;;
3189;SDS011;1606;51.946;10.558;2023-04-01T14:05:32;5.23;;;1.00;;
3189;SDS011;1606;51.946;10.558;2023-04-01T14:08:14;5.13;;;1.03;;
3189;SDS011;1606;51.946;10.558;2023-04-01T14:10:55;5.30;;;0.97;;
3189;SDS011;1606;51.946;10.558;2023-04-01T14:13:34;5.87;;;1.50;;
3189;SDS011;1606;51.946;10.558;2023-04-01T14:16:29;5.30;;;1.30;;
3189;SDS011;1606;51.946;10.558;2023-04-01T14:19:20;5.87;;;1.10;;
3189;SDS011;1606;51.946;10.558;2023-04-01T14:21:58;6.33;;;1.40;;
3189;SDS011;1606;51.946;10.558;2023-04-01T14:24:36;5.50;;;1.23;;
3189;SDS011;1606;51.946;10.558;2023-04-01T14:30:14;6.83;;;1.13;;
3189;SDS011;1606;51.946;10.558;2023-04-01T14:32:54;5.63;;;1.13;;
3189;SDS011;1606;51.946;10.558;2023-04-01T14:35:33;7.57;;;1.90;;
3189;SDS011;1606;51.946;10.558;2023-04-01T14:38:06;6.13;;;1.53;;
3189;SDS011;1606;51.946;10.558;2023-04-01T14:40:51;13.10;;;3.60;;
3189;SDS011;1606;51.946;10.558;2023-04-01T14:43:38;6.97;;;2.17;;
3189;SDS011;1606;51.946;10.558;2023-04-01T14:49:48;7.57;;;2.70;;
3189;SDS011;1606;51.946;10.558;2023-04-01T14:52:24;5.67;;;1.50;;
3189;SDS011;1606;51.946;10.558;2023-04-01T14:54:54;5.57;;;1.43;;
3189;SDS011;1606;51.946;10.558;2023-04-01T14:57:25;7.13;;;2.73;;
3189;SDS011;1606;51.946;10.558;2023-04-01T14:59:59;6.80;;;2.60;;
3189;SDS011;1606;51.946;10.558;2023-04-01T15:02:33;7.10;;;2.30;;
3189;SDS011;1606;51.946;10.558;2023-04-01T15:05:13;5.80;;;1.60;;
3189;SDS011;1606;51.946;10.558;2023-04-01T15:07:58;5.90;;;1.50;;
3189;SDS011;1606;51.946;10.558;2023-04-01T15:10:39;7.20;;;1.50;;
3189;SDS011;1606;51.946;10.558;2023-04-01T15:13:20;5.70;;;1.27;;
3189;SDS011;1606;51.946;10.558;2023-04-01T15:16:14;6.10;;;1.50;;
3189;SDS011;1606;51.946;10.558;2023-04-01T15:18:52;6.83;;;1.60;;
3189;SDS011;1606;51.946;10.558;2023-04-01T15:21:32;5.70;;;1.30;;
3189;SDS011;1606;51.946;10.558;2023-04-01T15:24:24;6.93;;;1.73;;
3189;SDS011;1606;51.946;10.558;2023-04-01T15:27:05;5.80;;;1.70;;
3189;SDS011;1606;51.946;10.558;2023-04-01T15:29:58;5.63;;;1.40;;
3189;SDS011;1606;51.946;10.558;2023-04-01T15:32:38;6.30;;;1.57;;
3189;SDS011;1606;51.946;10.558;2023-04-01T15:35:15;6.53;;;1.50;;
3189;SDS011;1606;51.946;10.558;2023-04-01T15:37:51;7.60;;;1.00;;
3189;SDS011;1606;51.946;10.558;2023-04-01T15:40:24;6.90;;;1.40;;
3189;SDS011;1606;51.946;10.558;2023-04-01T15:43:01;6.13;;;1.50;;
3189;SDS011;1606;51.946;10.558;2023-04-01T15:45:42;6.47;;;1.80;;
3189;SDS011;1606;51.946;10.558;2023-04-01T15:48:19;6.73;;;1.40;;
3189;SDS011;1606;51.946;10.558;2023-04-01T15:51:02;6.00;;;1.43;;
3189;SDS011;1606;51.946;10.558;2023-04-01T15:53:56;8.70;;;1.47;;
3189;SDS011;1606;51.946;10.558;2023-04-01T15:56:41;6.43;;;1.80;;
3189;SDS011;1606;51.946;10.558;2023-04-01T15:59:20;7.13;;;2.00;;
3189;SDS011;1606;51.946;10.558;2023-04-01T16:02:08;7.07;;;1.90;;
3189;SDS011;1606;51.946;10.558;2023-04-01T16:04:46;6.50;;;1.97;;
3189;SDS011;1606;51.946;10.558;2023-04-01T16:10:21;8.20;;;2.23;;
3189;SDS011;1606;51.946;10.558;2023-04-01T16:13:06;7.30;;;2.10;;
3189;SDS011;1606;51.946;10.558;2023-04-01T16:15:49;7.17;;;2.10;;
3189;SDS011;1606;51.946;10.558;2023-04-01T16:18:31;6.80;;;2.30;;
3189;SDS011;1606;51.946;10.558;2023-04-01T16:21:08;6.87;;;1.90;;
3189;SDS011;1606;51.946;10.558;2023-04-01T16:23:42;8.40;;;2.10;;
3189;SDS011;1606;51.946;10.558;2023-04-01T16:26:19;6.30;;;1.43;;
3189;SDS011;1606;51.946;10.558;2023-04-01T16:28:56;10.23;;;1.90;;
3189;SDS011;1606;51.946;10.558;2023-04-01T16:31:32;8.23;;;3.47;;
3189;SDS011;1606;51.946;10.558;2023-04-01T16:34:07;8.30;;;2.97;;
3189;SDS011;1606;51.946;10.558;2023-04-01T16:36:41;7.20;;;2.37;;
3189;SDS011;1606;51.946;10.558;2023-04-01T16:39:18;7.10;;;2.87;;
3189;SDS011;1606;51.946;10.558;2023-04-01T16:41:57;7.20;;;2.80;;
3189;SDS011;1606;51.946;10.558;2023-04-01T16:44:48;7.70;;;2.60;;
3189;SDS011;1606;51.946;10.558;2023-04-01T16:47:23;8.10;;;2.50;;
3189;SDS011;1606;51.946;10.558;2023-04-01T16:50:06;6.90;;;2.33;;
3189;SDS011;1606;51.946;10.558;2023-04-01T16:52:48;7.90;;;3.17;;
3189;SDS011;1606;51.946;10.558;2023-04-01T16:55:33;7.40;;;3.07;;